Time;durP1;ratioP1;P1;durP2;ratioP2;P2;SDS_P1;SDS_P2;PMS_P1;PMS_P2;Temp;Humidity;BMP_temperature;BMP_pressure;BME280_temperature;BME280_humidity;BME280_pressure;Samples;Min_cycle;Max_cycle;Signal;HPM_P1;HPM_P2
2022/09/21 00:01:54;;;;;;;2.92;2.02;;;;;;;13.38;62.69;99675.90;1687718;85;22076;-77
2022/09/21 00:05:00;;;;;;;5.80;2.80;;;;;;;13.25;62.91;99679.46;1687461;85;21205;-77
2022/09/21 00:08:08;;;;;;;5.00;2.40;;;;;;;13.22;63.01;99677.12;1687381;85;21205;-77
2022/09/21 00:11:14;;;;;;;6.85;2.50;;;;;;;13.21;63.36;99668.54;1687425;85;21767;-77
2022/09/21 00:14:19;;;;;;;7.40;2.40;;;;;;;13.15;63.52;99672.13;1686997;85;21772;-78
2022/09/21 00:17:26;;;;;;;3.08;2.40;;;;;;;13.16;63.34;99675.19;1687606;85;21224;-78
2022/09/21 00:20:32;;;;;;;4.45;2.45;;;;;;;13.30;62.61;99673.66;1687527;85;21189;-78
2022/09/21 00:23:38;;;;;;;4.42;2.30;;;;;;;13.25;62.47;99672.06;1687564;85;21212;-78
2022/09/21 00:26:44;;;;;;;6.22;2.65;;;;;;;13.19;62.54;99677.53;1686619;85;21204;-78
2022/09/21 00:29:50;;;;;;;4.58;2.60;;;;;;;13.12;62.39;99676.13;1686549;85;21633;-78
2022/09/21 00:32:56;;;;;;;4.70;2.10;;;;;;;13.05;62.59;99680.24;1687445;85;21208;-78
2022/09/21 00:36:02;;;;;;;3.90;2.60;;;;;;;12.98;62.82;99671.13;1687223;85;21339;-78
2022/09/21 00:39:09;;;;;;;3.58;2.20;;;;;;;12.94;62.77;99669.03;1687423;85;21209;-78
2022/09/21 00:42:19;;;;;;;4.83;2.00;;;;;;;12.81;63.13;99671.73;1687436;85;21779;-78
2022/09/21 00:45:26;;;;;;;3.90;1.95;;;;;;;12.64;63.43;99673.45;1687518;85;21590;-78
2022/09/21 00:48:32;;;;;;;2.95;2.08;;;;;;;12.52;63.77;99671.00;1687452;85;21256;-77
2022/09/21 00:51:37;;;;;;;9.28;2.47;;;;;;;12.44;63.91;99667.89;1686371;85;21285;-77
2022/09/21 00:54:59;;;;;;;6.00;2.25;;;;;;;12.37;63.95;99666.16;1686453;84;21533;-77
2022/09/21 00:58:11;;;;;;;;;;;;;;;12.44;63.53;99666.52;1689784;85;21220;-77
2022/09/21 01:01:18;;;;;;;5.05;2.47;;;;;;;12.38;63.58;99670.09;1687457;85;20209;-77
2022/09/21 01:04:25;;;;;;;4.75;2.42;;;;;;;12.34;63.72;99677.03;1686532;85;21411;-77
2022/09/21 01:07:34;;;;;;;3.25;1.72;;;;;;;12.41;63.52;99672.94;1686188;85;21205;-78
2022/09/21 01:11:13;;;;;;;8.60;1.92;;;;;;;12.49;63.05;99673.61;1688413;85;21705;-77
2022/09/21 01:14:46;;;;;;;5.80;1.95;;;;;;;12.37;63.15;99672.48;1687345;85;21193;-77
2022/09/21 01:18:29;;;;;;;4.80;1.90;;;;;;;12.36;63.12;99673.55;1686345;85;21272;-78
2022/09/21 01:21:40;;;;;;;2.17;1.87;;;;;;;12.31;63.23;99673.31;1687422;85;21201;-78
2022/09/21 01:25:24;;;;;;;3.12;1.72;;;;;;;12.34;62.81;99670.17;1686186;85;21780;-77
2022/09/21 01:28:56;;;;;;;4.25;1.72;;;;;;;12.31;62.75;99662.34;1687423;85;21802;-78
2022/09/21 01:32:14;;;;;;;2.15;1.70;;;;;;;12.22;62.92;99667.67;1686057;85;22506;-78
2022/09/21 01:35:32;;;;;;;5.92;1.80;;;;;;;12.00;63.65;99669.14;1686741;85;21236;-78
2022/09/21 01:38:48;;;;;;;5.45;1.87;;;;;;;11.98;63.90;99668.48;1687691;85;21181;-77
2022/09/21 01:41:56;;;;;;;2.58;1.80;;;;;;;11.88;63.93;99669.89;1686249;85;21336;-78
2022/09/21 01:45:05;;;;;;;2.90;1.92;;;;;;;11.72;64.29;99670.49;1687407;85;21208;-78
2022/09/21 01:48:11;;;;;;;2.02;1.77;;;;;;;11.64;64.47;99673.90;1686616;85;21858;-78
2022/09/21 01:51:18;;;;;;;2.37;1.72;;;;;;;11.55;64.75;99677.83;1686306;85;21590;-78
2022/09/21 01:54:32;;;;;;;3.65;1.87;;;;;;;11.47;64.90;99681.02;1684532;84;21237;-78
2022/09/21 01:57:59;;;;;;;6.12;2.20;;;;;;;11.41;65.12;99680.45;1677472;85;21237;-78
2022/09/21 02:01:01;;;;;;;3.75;1.80;;;;;;;11.47;64.98;99678.80;1678896;85;21819;-78
2022/09/21 02:04:12;;;;;;;3.10;1.70;;;;;;;11.43;64.87;99686.59;1679005;85;21193;-78
2022/09/21 02:07:18;;;;;;;3.33;2.20;;;;;;;11.34;64.96;99684.16;1678852;85;21193;-78
2022/09/21 02:10:41;;;;;;;2.05;1.70;;;;;;;11.31;64.94;99681.83;1678750;85;21205;-78
2022/09/21 02:13:51;;;;;;;2.72;1.90;;;;;;;11.19;65.54;99676.86;1679034;85;21249;-78
2022/09/21 02:17:27;;;;;;;3.08;1.70;;;;;;;11.15;65.77;99681.06;1678730;85;21268;-78
2022/09/21 02:20:39;;;;;;;3.98;2.10;;;;;;;11.16;65.81;99679.16;1671419;85;21216;-77
2022/09/21 02:23:48;;;;;;;2.77;1.98;;;;;;;11.05;65.93;99674.19;1678544;85;21233;-78
2022/09/21 02:26:55;;;;;;;4.37;1.87;;;;;;;10.97;66.23;99671.92;1678937;85;21201;-78
2022/09/21 02:30:10;;;;;;;2.52;2.00;;;;;;;10.99;66.05;99677.19;1677653;85;21189;-78
2022/09/21 02:33:18;;;;;;;2.70;2.08;;;;;;;10.96;66.41;99689.39;1679219;85;21209;-78
2022/09/21 02:36:34;;;;;;;4.92;2.22;;;;;;;10.86;66.71;99685.25;1678335;85;21224;-78
2022/09/21 02:39:56;;;;;;;3.62;2.45;;;;;;;10.87;66.90;99688.30;1679012;85;21312;-77
2022/09/21 02:43:10;;;;;;;2.98;2.12;;;;;;;10.82;66.94;99684.81;1678875;85;21213;-78
2022/09/21 02:46:36;;;;;;;6.08;2.20;;;;;;;10.92;66.97;99692.18;1679436;85;21249;-78
2022/09/21 02:49:50;;;;;;;5.35;2.22;;;;;;;10.97;66.34;99692.45;1663310;85;21796;-77
2022/09/21 02:52:55;;;;;;;3.35;2.20;;;;;;;11.01;66.35;99699.75;1677813;85;21201;-78
2022/09/21 02:56:06;;;;;;;2.47;2.25;;;;;;;10.79;66.78;99696.13;1683660;84;21217;-78
2022/09/21 02:59:12;;;;;;;3.30;2.40;;;;;;;10.83;66.51;99697.44;1686911;85;21284;-78
2022/09/21 03:02:18;;;;;;;2.75;2.17;;;;;;;10.83;66.52;99695.23;1686202;85;21555;-78
2022/09/21 03:05:25;;;;;;;3.67;2.20;;;;;;;10.71;66.75;99713.48;1685984;85;21205;-78
2022/09/21 03:08:31;;;;;;;4.85;2.33;;;;;;;10.61;67.25;99713.47;1686202;85;21216;-78
2022/09/21 03:11:41;;;;;;;5.03;2.15;;;;;;;10.51;67.65;99724.70;1687468;85;21830;-78
2022/09/21 03:14:46;;;;;;;3.95;2.25;;;;;;;10.63;67.47;99719.09;1687519;85;21213;-78
2022/09/21 03:17:52;;;;;;;2.77;2.33;;;;;;;10.71;67.26;99723.58;1687457;85;21256;-78
2022/09/21 03:20:59;;;;;;;3.17;2.33;;;;;;;10.75;67.24;99718.06;1687260;85;21245;-78
2022/09/21 03:23:57;;;;;;;;;;;;;;;10.73;67.56;99725.63;1689989;85;21197;-78
2022/09/21 03:27:02;;;;;;;3.67;2.33;;;;;;;10.82;67.73;99727.70;1687357;85;20694;-79
2022/09/21 03:30:09;;;;;;;5.60;2.55;;;;;;;10.84;67.78;99715.55;1687496;85;21205;-78
2022/09/21 03:33:15;;;;;;;2.65;2.40;;;;;;;10.93;67.86;99717.13;1687424;85;21244;-77
2022/09/21 03:36:21;;;;;;;3.75;2.27;;;;;;;10.93;68.03;99708.92;1687394;85;21775;-77
2022/09/21 03:39:27;;;;;;;3.12;2.83;;;;;;;10.87;68.15;99717.03;1686590;85;21272;-77
2022/09/21 03:42:34;;;;;;;3.42;2.42;;;;;;;10.94;68.32;99721.55;1687484;85;21248;-77
2022/09/21 03:45:42;;;;;;;4.20;2.58;;;;;;;11.04;68.66;99728.60;1687505;85;21205;-77
2022/09/21 03:48:48;;;;;;;3.50;2.57;;;;;;;11.17;68.73;99732.86;1687353;85;21209;-78
2022/09/21 03:51:54;;;;;;;3.42;2.33;;;;;;;11.38;68.71;99734.22;1686570;85;22492;-77
2022/09/21 03:54:54;;;;;;;4.58;3.08;;;;;;;11.51;68.62;99735.72;1687688;85;21256;-77
2022/09/21 03:58:00;;;;;;;2.98;2.25;;;;;;;11.73;68.15;99732.45;1678537;84;21840;-78
2022/09/21 04:01:10;;;;;;;3.17;2.00;;;;;;;11.83;67.92;99730.77;1678856;85;21260;-77
2022/09/21 04:04:16;;;;;;;4.72;2.27;;;;;;;11.92;67.42;99721.36;1678827;85;21197;-78
2022/09/21 04:07:22;;;;;;;2.55;2.35;;;;;;;11.98;67.27;99726.56;1678069;85;22531;-77
2022/09/21 04:10:31;;;;;;;5.25;2.90;;;;;;;12.14;66.94;99723.53;1677739;85;21209;-77
2022/09/21 04:13:36;;;;;;;3.22;2.45;;;;;;;12.14;66.89;99718.05;1678982;85;21248;-77
2022/09/21 04:16:42;;;;;;;3.67;2.50;;;;;;;12.17;67.07;99722.27;1678866;85;21244;-78
2022/09/21 04:19:48;;;;;;;3.33;2.58;;;;;;;12.30;66.99;99736.06;1678149;85;21760;-77
2022/09/21 04:22:54;;;;;;;2.90;2.30;;;;;;;12.34;66.83;99736.52;1678157;85;21244;-77
2022/09/21 04:26:01;;;;;;;6.22;2.72;;;;;;;12.41;66.95;99735.48;1678634;85;21260;-77
2022/09/21 04:29:07;;;;;;;7.12;3.27;;;;;;;12.50;66.67;99738.91;1678746;85;21233;-77
2022/09/21 04:32:13;;;;;;;8.63;3.35;;;;;;;12.63;66.55;99745.01;1677600;85;21259;-77
2022/09/21 04:35:19;;;;;;;3.95;2.70;;;;;;;12.57;67.04;99732.11;1677516;85;21213;-78
2022/09/21 04:38:17;;;;;;;4.75;3.05;;;;;;;12.69;66.87;99737.33;1678348;85;21232;-77
2022/09/21 04:41:23;;;;;;;4.62;2.77;;;;;;;12.89;66.58;99745.14;1678881;85;21209;-78
2022/09/21 04:44:29;;;;;;;4.85;3.08;;;;;;;13.03;66.71;99750.13;1678875;85;21157;-78
2022/09/21 04:47:38;;;;;;;6.03;2.92;;;;;;;13.12;66.89;99742.02;1678915;85;21205;-78
2022/09/21 04:50:45;;;;;;;5.75;3.00;;;;;;;13.32;66.53;99738.02;1677417;85;21819;-78
2022/09/21 04:53:51;;;;;;;2.80;2.17;;;;;;;13.48;66.20;99735.39;1677934;85;21236;-77
2022/09/21 04:56:57;;;;;;;4.15;3.02;;;;;;;13.67;65.73;99736.47;1679522;84;21190;-77
2022/09/21 05:00:03;;;;;;;3.30;2.72;;;;;;;13.76;65.23;99733.30;1686103;85;21280;-79
2022/09/21 05:03:09;;;;;;;6.62;2.90;;;;;;;13.63;65.04;99730.53;1687456;85;21199;-79
2022/09/21 05:06:14;;;;;;;5.70;3.10;;;;;;;13.71;64.97;99734.46;1687527;85;21208;-79
2022/09/21 05:12:43;;;;;;;5.12;3.45;;;;;;;13.81;64.76;99738.16;1693188;84;21233;-78
2022/09/21 05:15:48;;;;;;;4.20;2.90;;;;;;;13.88;64.85;99738.15;1691460;84;21227;-78
2022/09/21 05:18:57;;;;;;;4.28;3.08;;;;;;;14.10;64.66;99742.91;1694413;83;21899;-78
2022/09/21 05:22:03;;;;;;;5.03;2.70;;;;;;;14.33;64.37;99741.92;1702043;83;21318;-78
2022/09/21 05:25:10;;;;;;;3.77;3.02;;;;;;;14.51;63.93;99740.75;1700378;84;21240;-78
2022/09/21 05:28:16;;;;;;;6.17;3.42;;;;;;;14.74;63.50;99739.42;1691676;83;21185;-78
2022/09/21 05:31:30;;;;;;;4.35;2.80;;;;;;;14.81;63.22;99744.36;1694296;84;21204;-78
2022/09/21 05:34:46;;;;;;;4.05;3.20;;;;;;;14.87;62.96;99739.88;1694865;84;21199;-78
2022/09/21 05:38:00;;;;;;;3.80;3.15;;;;;;;14.98;62.52;99742.81;1699652;84;21212;-77
2022/09/21 05:41:06;;;;;;;4.03;3.20;;;;;;;15.05;62.65;99736.72;1695657;83;21208;-78
2022/09/21 05:44:11;;;;;;;5.87;2.77;;;;;;;15.17;62.00;99737.43;1697305;84;21244;-77
2022/09/21 05:47:48;;;;;;;4.60;3.08;;;;;;;15.32;61.88;99736.59;1693293;83;21232;-77
2022/09/21 05:51:10;;;;;;;3.95;3.08;;;;;;;15.42;61.71;99727.84;1688621;83;21196;-78
2022/09/21 05:54:41;;;;;;;4.30;3.08;;;;;;;15.57;61.70;99733.87;1694727;83;21169;-77
2022/09/21 05:58:07;;;;;;;3.05;2.62;;;;;;;15.68;61.45;99731.83;1697214;84;21197;-78
2022/09/21 06:01:27;;;;;;;3.83;3.42;;;;;;;15.76;60.93;99730.69;1700200;83;21208;-77
2022/09/21 06:04:32;;;;;;;7.20;3.80;;;;;;;15.88;60.54;99736.34;1706129;83;22263;-77
2022/09/21 06:07:38;;;;;;;5.20;3.25;;;;;;;15.91;59.41;99738.12;1701933;83;21228;-78
2022/09/21 06:10:51;;;;;;;7.55;3.37;;;;;;;16.03;59.08;99741.81;1697108;83;21189;-78
2022/09/21 06:14:00;;;;;;;5.95;3.75;;;;;;;16.02;60.11;99742.89;1697146;83;21255;-79
2022/09/21 06:17:09;;;;;;;7.80;3.90;;;;;;;16.09;59.60;99739.55;1701420;83;21724;-79
2022/09/21 06:20:18;;;;;;;6.37;3.30;;;;;;;16.16;59.19;99745.00;1684894;83;21211;-79
2022/09/21 06:23:29;;;;;;;5.05;3.25;;;;;;;16.31;58.34;99751.55;1701484;83;21248;-78
2022/09/21 06:26:36;;;;;;;8.33;3.72;;;;;;;16.39;58.27;99749.87;1693328;83;21223;-79
2022/09/21 06:29:42;;;;;;;11.70;3.72;;;;;;;16.72;56.62;99746.79;1694529;83;22451;-80
2022/09/21 06:32:48;;;;;;;10.82;3.12;;;;;;;16.74;57.01;99755.67;1694354;83;21283;-79
2022/09/21 06:36:03;;;;;;;7.62;2.98;;;;;;;16.71;57.18;99751.98;1699160;83;21338;-79
2022/09/21 06:39:11;;;;;;;4.22;3.02;;;;;;;16.86;56.54;99753.00;1700317;83;21204;-78
2022/09/21 06:42:17;;;;;;;3.70;2.62;;;;;;;16.83;56.89;99753.45;1699822;83;21756;-78
2022/09/21 06:45:24;;;;;;;5.40;2.83;;;;;;;16.86;55.89;99750.23;1698749;83;21283;-78
2022/09/21 06:48:29;;;;;;;4.20;2.70;;;;;;;17.08;55.08;99746.47;1680766;84;21267;-79
2022/09/21 06:51:35;;;;;;;4.20;2.60;;;;;;;17.05;55.04;99754.67;1706604;82;21259;-79
2022/09/21 06:54:42;;;;;;;2.47;2.22;;;;;;;17.35;55.04;99764.90;1706796;83;22533;-79
2022/09/21 06:57:50;;;;;;;3.05;2.65;;;;;;;17.35;55.02;99769.05;1678795;84;21236;-79
2022/09/21 07:00:56;;;;;;;2.77;2.17;;;;;;;17.43;53.57;99769.27;1696779;83;21213;-79
2022/09/21 07:04:08;;;;;;;2.92;2.40;;;;;;;17.46;54.24;99769.66;1678852;84;21211;-79
2022/09/21 07:07:13;;;;;;;2.75;1.90;;;;;;;17.83;53.80;99759.34;1707888;83;21202;-78
2022/09/21 07:10:18;;;;;;;2.85;1.75;;;;;;;17.92;52.84;99762.58;1677063;84;21204;-78
2022/09/21 07:13:29;;;;;;;2.08;1.20;;;;;;;18.14;52.24;99759.55;1708328;83;21358;-79
2022/09/21 07:16:36;;;;;;;6.10;1.77;;;;;;;18.32;52.17;99766.08;1713294;83;21226;-78
2022/09/21 07:19:42;;;;;;;4.03;1.82;;;;;;;18.43;51.57;99751.92;1714441;83;21188;-78
2022/09/21 07:22:48;;;;;;;2.65;2.10;;;;;;;18.53;50.66;99756.31;1671463;84;21176;-79
2022/09/21 07:25:55;;;;;;;2.95;1.90;;;;;;;18.63;49.79;99750.48;1678465;83;21250;-80
2022/09/21 07:29:02;;;;;;;2.87;1.52;;;;;;;18.70;50.19;99760.06;1704074;83;21216;-80
2022/09/21 07:32:09;;;;;;;4.70;1.30;;;;;;;18.96;50.68;99749.02;1711291;83;21189;-79
2022/09/21 07:35:13;;;;;;;2.02;1.72;;;;;;;19.13;49.14;99758.77;1702277;83;21228;-79
2022/09/21 07:38:20;;;;;;;1.90;1.55;;;;;;;19.01;48.40;99753.27;1702432;83;21196;-79
2022/09/21 07:41:30;;;;;;;4.67;1.35;;;;;;;19.24;48.79;99752.33;1696550;84;21279;-80
2022/09/21 07:44:38;;;;;;;2.70;1.47;;;;;;;19.16;48.98;99754.12;1698313;84;21217;-79
2022/09/21 07:47:45;;;;;;;1.67;1.32;;;;;;;19.25;48.48;99755.97;1694541;84;21631;-79
2022/09/21 07:50:50;;;;;;;1.87;1.30;;;;;;;19.26;47.91;99759.88;1698709;83;21242;-79
2022/09/21 07:54:01;;;;;;;1.85;1.20;;;;;;;19.11;47.42;99758.19;1689735;83;21847;-79
2022/09/21 08:00:33;;;;;;;2.80;1.62;;;;;;;19.49;47.04;99758.94;1699563;83;21525;-79
2022/09/21 08:03:35;;;;;;;5.55;1.60;;;;;;;19.63;47.31;99753.42;1698250;83;21193;-79
2022/09/21 08:06:27;;;;;;;2.08;1.70;;;;;;;19.88;47.29;99756.34;1692985;84;21204;-79
2022/09/21 08:09:32;;;;;;;4.00;1.90;;;;;;;20.06;47.30;99751.95;1700981;84;21744;-79
2022/09/21 08:12:38;;;;;;;2.27;1.85;;;;;;;20.24;46.83;99767.52;1694020;84;21240;-79
2022/09/21 08:15:43;;;;;;;5.78;2.65;;;;;;;20.29;45.79;99763.98;1699331;83;21755;-79
2022/09/21 08:18:50;;;;;;;2.47;1.65;;;;;;;20.11;44.71;99760.91;1701716;84;21185;-79
2022/09/21 08:21:58;;;;;;;3.15;1.62;;;;;;;19.78;45.68;99767.27;1701687;84;21200;-79
2022/09/21 08:25:03;;;;;;;3.17;1.60;;;;;;;19.78;45.43;99764.50;1694633;83;21207;-78
2022/09/21 08:28:08;;;;;;;7.83;2.30;;;;;;;19.51;45.72;99773.39;1698093;83;21213;-78
2022/09/21 08:31:15;;;;;;;2.52;2.08;;;;;;;19.32;45.71;99772.74;1697594;83;21196;-79
2022/09/21 08:34:22;;;;;;;3.47;2.17;;;;;;;19.24;45.86;99777.83;1695188;83;21173;-78
2022/09/21 08:37:30;;;;;;;8.85;2.27;;;;;;;19.03;46.29;99768.27;1697793;83;21184;-78
2022/09/21 08:40:37;;;;;;;5.97;1.92;;;;;;;19.02;46.69;99761.04;1698645;83;21791;-78
2022/09/21 08:44:01;;;;;;;5.25;1.77;;;;;;;19.19;46.37;99753.61;1703653;83;21168;-79
2022/09/21 08:47:19;;;;;;;8.75;1.82;;;;;;;19.18;46.08;99753.88;1694421;83;21228;-80
2022/09/21 08:50:38;;;;;;;3.15;1.80;;;;;;;19.22;46.04;99740.66;1664716;85;21305;-78
2022/09/21 08:53:51;;;;;;;2.67;1.92;;;;;;;19.07;45.75;99743.97;1669735;84;21208;-78
2022/09/21 08:56:57;;;;;;;4.40;1.55;;;;;;;18.89;46.09;99742.75;1700208;83;21803;-79
2022/09/21 09:00:04;;;;;;;3.02;1.67;;;;;;;18.75;45.73;99744.94;1685821;83;21200;-79
2022/09/21 09:03:32;;;;;;;7.50;1.77;;;;;;;19.05;45.21;99737.81;1673102;83;22497;-79
2022/09/21 09:07:15;;;;;;;2.58;1.60;;;;;;;19.14;44.83;99737.72;1667697;86;21337;-79
2022/09/21 09:10:54;;;;;;;6.87;1.42;;;;;;;19.21;44.53;99740.37;1706035;84;21238;-79
2022/09/21 09:14:22;;;;;;;2.10;1.32;;;;;;;19.12;44.49;99744.06;1705620;83;21268;-79
2022/09/21 09:17:53;;;;;;;2.58;1.55;;;;;;;19.10;44.12;99731.02;1675025;84;21915;-79
2022/09/21 09:21:06;;;;;;;5.25;1.72;;;;;;;19.13;44.39;99740.20;1685575;83;21198;-78
2022/09/21 09:24:14;;;;;;;2.50;1.37;;;;;;;19.45;44.84;99742.50;1705616;82;21506;-78
2022/09/21 09:27:44;;;;;;;5.58;1.35;;;;;;;19.59;44.92;99738.33;1674782;84;21194;-78
2022/09/21 09:30:51;;;;;;;1.45;1.20;;;;;;;19.79;44.29;99739.81;1691531;83;21184;-78
2022/09/21 09:34:30;;;;;;;1.37;1.22;;;;;;;20.07;43.95;99744.45;1685955;83;21733;-78
2022/09/21 09:37:40;;;;;;;1.37;1.27;;;;;;;20.27;43.22;99743.94;1700019;83;21806;-78
2022/09/21 09:41:01;;;;;;;5.05;1.12;;;;;;;20.58;42.84;99741.95;1692560;83;21277;-78
2022/09/21 09:44:20;;;;;;;1.95;1.20;;;;;;;20.84;42.33;99738.12;1670938;83;21265;-79
2022/09/21 09:48:05;;;;;;;1.52;1.25;;;;;;;21.05;42.20;99733.14;1684590;83;21225;-79
2022/09/21 09:51:09;;;;;;;1.15;1.05;;;;;;;21.37;41.52;99742.17;1651935;84;21243;-79
2022/09/21 09:54:21;;;;;;;1.95;0.98;;;;;;;21.37;39.54;99746.34;1665024;84;21219;-79
2022/09/21 09:57:35;;;;;;;3.27;1.07;;;;;;;21.32;40.00;99742.95;1700799;84;21211;-78
2022/09/21 10:00:39;;;;;;;2.47;1.20;;;;;;;21.31;39.81;99747.37;1695283;83;21210;-79
2022/09/21 10:03:47;;;;;;;5.72;2.25;;;;;;;21.19;39.05;99748.33;1691334;82;21242;-79
2022/09/21 10:06:53;;;;;;;2.67;1.00;;;;;;;21.13;39.46;99752.70;1669991;85;21316;-79
2022/09/21 10:09:59;;;;;;;2.25;1.30;;;;;;;21.13;39.71;99753.55;1674388;83;21571;-79
2022/09/21 10:13:19;;;;;;;1.10;1.00;;;;;;;20.97;39.62;99751.66;1704251;83;21180;-79
2022/09/21 10:16:30;;;;;;;4.10;1.35;;;;;;;20.89;40.16;99753.52;1688415;82;21195;-79
2022/09/21 10:19:37;;;;;;;1.05;0.90;;;;;;;20.85;40.38;99754.57;1698469;83;21195;-79
2022/09/21 10:22:43;;;;;;;1.70;1.10;;;;;;;20.98;40.50;99756.11;1697023;84;21257;-79
2022/09/21 10:25:48;;;;;;;1.87;1.00;;;;;;;21.09;40.12;99753.77;1698979;83;21256;-79
2022/09/21 10:29:07;;;;;;;1.60;1.07;;;;;;;21.14;39.79;99756.61;1680431;83;21270;-78
2022/09/21 10:32:25;;;;;;;2.50;1.05;;;;;;;21.16;39.67;99760.52;1695799;83;21252;-79
2022/09/21 10:35:31;;;;;;;3.30;1.77;;;;;;;21.13;39.18;99765.22;1699040;83;22090;-78
2022/09/21 10:38:38;;;;;;;4.03;1.45;;;;;;;21.03;39.49;99749.25;1693569;83;21213;-79
2022/09/21 10:41:44;;;;;;;2.52;1.10;;;;;;;21.00;39.58;99762.27;1699631;83;21176;-78
2022/09/21 10:45:02;;;;;;;1.25;1.10;;;;;;;21.08;39.46;99770.72;1697796;82;21292;-78
2022/09/21 10:48:16;;;;;;;1.92;1.12;;;;;;;21.11;39.41;99770.19;1695820;82;21216;-78
2022/09/21 10:51:38;;;;;;;1.12;1.02;;;;;;;21.12;39.68;99769.08;1699925;82;22500;-79
2022/09/21 10:54:43;;;;;;;2.08;1.12;;;;;;;21.10;39.50;99772.13;1694355;82;21206;-78
2022/09/21 10:57:49;;;;;;;3.22;1.10;;;;;;;21.08;39.23;99772.11;1668596;83;21280;-79
2022/09/21 11:00:56;;;;;;;3.30;1.12;;;;;;;21.05;39.25;99777.63;1677717;84;21262;-79
2022/09/21 11:04:11;;;;;;;4.87;1.05;;;;;;;21.01;38.91;99779.23;1700443;82;21220;-79
2022/09/21 11:07:24;;;;;;;6.42;1.37;;;;;;;20.96;38.65;99775.55;1699533;83;21200;-79
2022/09/21 11:10:40;;;;;;;1.20;1.10;;;;;;;20.92;39.36;99778.83;1696163;82;21213;-79
2022/09/21 11:14:00;;;;;;;3.27;1.22;;;;;;;21.00;39.28;99780.89;1700885;83;21236;-79
2022/09/21 11:17:12;;;;;;;1.37;1.20;;;;;;;21.12;39.48;99776.86;1708798;83;21293;-79
2022/09/21 11:20:44;;;;;;;2.85;2.00;;;;;;;21.32;38.25;99782.45;1709488;83;21251;-79
2022/09/21 11:24:31;;;;;;;7.10;1.72;;;;;;;21.39;38.33;99781.69;1721895;83;21266;-78
2022/09/21 11:27:48;;;;;;;4.87;1.57;;;;;;;21.58;38.50;99776.06;1700867;83;21188;-78
2022/09/21 11:31:07;;;;;;;2.67;1.10;;;;;;;21.69;38.21;99772.30;1708313;82;21779;-78
2022/09/21 11:35:01;;;;;;;1.75;1.37;;;;;;;21.90;37.72;99775.28;1687835;83;21170;-78
2022/09/21 11:38:42;;;;;;;5.08;1.20;;;;;;;21.97;36.93;99770.31;1671119;83;21307;-78
2022/09/21 11:42:30;;;;;;;5.40;1.60;;;;;;;21.87;36.39;99773.02;1677105;84;21188;-78
2022/09/21 11:45:59;;;;;;;5.70;1.92;;;;;;;21.78;37.09;99764.84;1678561;85;22398;-79
2022/09/21 11:49:33;;;;;;;5.78;1.70;;;;;;;21.93;37.60;99765.02;1631737;86;21251;-78
2022/09/21 11:52:56;;;;;;;5.10;1.92;;;;;;;21.98;36.93;99765.06;1677855;85;21861;-79
2022/09/21 11:56:32;;;;;;;1.85;1.60;;;;;;;21.84;36.68;99767.99;1658163;86;21833;-79
2022/09/21 11:59:53;;;;;;;4.47;1.75;;;;;;;21.54;37.25;99767.11;1685852;84;21204;-78
2022/09/21 12:03:26;;;;;;;3.62;1.70;;;;;;;21.38;36.91;99765.55;1662166;84;21828;-78
2022/09/21 12:06:54;;;;;;;2.67;1.47;;;;;;;21.22;37.86;99766.97;1687397;83;21257;-78
2022/09/21 12:10:40;;;;;;;4.62;1.60;;;;;;;21.30;37.57;99764.58;1682094;82;21618;-79
2022/09/21 12:14:14;;;;;;;2.85;1.42;;;;;;;20.91;38.37;99755.47;1703778;82;21262;-80
2022/09/21 12:17:55;;;;;;;4.45;1.42;;;;;;;20.91;38.45;99770.77;1703381;82;21206;-80
2022/09/21 12:21:35;;;;;;;1.77;1.32;;;;;;;20.84;37.61;99770.96;1685473;82;21183;-78
2022/09/21 12:24:49;;;;;;;1.60;1.03;;;;;;;20.75;37.83;99768.85;1714725;82;21249;-79
2022/09/21 12:28:10;;;;;;;1.50;0.90;;;;;;;20.68;38.57;99775.44;1704916;83;21579;-78
2022/09/21 12:31:47;;;;;;;3.25;1.10;;;;;;;20.77;37.96;99769.45;1684349;85;21252;-79
2022/09/21 12:35:00;;;;;;;2.35;1.00;;;;;;;20.77;37.50;99777.80;1711698;83;22406;-78
2022/09/21 12:38:31;;;;;;;3.47;1.22;;;;;;;20.71;37.33;99774.66;1709176;84;22573;-79
2022/09/21 12:41:52;;;;;;;4.85;1.40;;;;;;;20.70;37.48;99776.56;1708506;84;21254;-79
2022/09/21 12:45:04;;;;;;;1.62;1.30;;;;;;;20.66;37.58;99776.81;1707538;84;21210;-79
2022/09/21 12:48:26;;;;;;;1.65;1.12;;;;;;;20.71;37.97;99771.33;1705469;84;21766;-79
2022/09/21 12:51:44;;;;;;;4.80;1.20;;;;;;;20.65;38.59;99784.83;1705552;84;21230;-78
2022/09/21 12:55:27;;;;;;;3.90;1.05;;;;;;;20.71;39.06;99780.22;1705355;84;22515;-78
2022/09/21 12:58:54;;;;;;;1.95;1.20;;;;;;;20.86;38.14;99775.70;1704871;84;21218;-79
2022/09/21 13:02:39;;;;;;;1.95;1.22;;;;;;;20.86;38.30;99777.09;1705027;84;21547;-78
2022/09/21 13:05:53;;;;;;;3.05;1.30;;;;;;;20.78;37.81;99778.91;1709424;82;21249;-78
2022/09/21 13:09:00;;;;;;;2.85;1.70;;;;;;;20.79;37.90;99783.37;1722546;83;21776;-78
2022/09/21 13:12:07;;;;;;;2.00;1.25;;;;;;;20.72;37.94;99780.50;1722453;83;21257;-78
2022/09/21 13:15:21;;;;;;;5.03;1.60;;;;;;;20.61;37.91;99772.57;1720911;83;21233;-78
2022/09/21 13:18:45;;;;;;;3.98;1.70;;;;;;;20.52;38.01;99792.16;1723404;83;21229;-78
2022/09/21 13:21:51;;;;;;;6.20;1.50;;;;;;;20.36;38.32;99791.02;1723056;83;21253;-78
2022/09/21 13:25:11;;;;;;;2.85;1.70;;;;;;;20.32;38.40;99787.06;1722005;83;21249;-78
2022/09/21 13:28:22;;;;;;;5.47;1.60;;;;;;;20.43;38.82;99787.54;1722659;83;21225;-78
2022/09/21 13:31:37;;;;;;;3.67;1.57;;;;;;;20.52;38.93;99776.88;1721284;83;21201;-78
2022/09/21 13:34:41;;;;;;;4.58;1.47;;;;;;;20.53;38.48;99778.00;1721359;83;21214;-78
2022/09/21 13:37:47;;;;;;;2.55;1.60;;;;;;;20.48;38.71;99775.15;1721354;83;21217;-78
2022/09/21 13:41:06;;;;;;;2.45;1.40;;;;;;;20.49;38.80;99780.98;1721454;83;21816;-78
2022/09/21 13:44:15;;;;;;;2.22;1.65;;;;;;;20.46;38.40;99785.63;1722402;83;21253;-78
2022/09/21 13:47:20;;;;;;;3.27;1.65;;;;;;;20.43;38.52;99781.98;1717597;83;21292;-78
2022/09/21 13:50:48;;;;;;;3.72;1.30;;;;;;;20.41;38.04;99789.71;1722794;83;21221;-78
2022/09/21 13:53:53;;;;;;;2.92;1.40;;;;;;;20.32;38.23;99796.23;1723355;83;21197;-78
2022/09/21 13:57:28;;;;;;;3.20;1.17;;;;;;;20.29;38.18;99787.03;1721804;83;21221;-77
2022/09/21 14:00:59;;;;;;;1.95;1.40;;;;;;;20.27;38.66;99786.98;1723139;83;21214;-79
2022/09/21 14:04:10;;;;;;;3.70;1.40;;;;;;;20.29;38.45;99784.81;1722508;83;21222;-79
2022/09/21 14:07:15;;;;;;;;;;;;;;;20.27;38.00;99787.81;1724658;82;21756;-79
2022/09/21 14:10:28;;;;;;;2.75;1.70;;;;;;;20.22;38.04;99796.62;1723082;83;20218;-78
2022/09/21 14:13:42;;;;;;;5.62;1.82;;;;;;;20.05;38.35;99786.36;1723695;83;21779;-78
2022/09/21 14:16:57;;;;;;;8.45;1.82;;;;;;;19.94;38.62;99788.64;1721880;83;21198;-78
2022/09/21 14:20:06;;;;;;;4.60;1.25;;;;;;;20.01;38.91;99785.17;1721844;83;21253;-78
2022/09/21 14:23:29;;;;;;;5.65;1.95;;;;;;;19.93;38.82;99791.12;1723133;83;21181;-78
2022/09/21 14:26:52;;;;;;;4.53;1.77;;;;;;;19.90;38.87;99793.88;1722573;83;21197;-78
2022/09/21 14:30:12;;;;;;;2.58;1.50;;;;;;;19.95;38.87;99800.06;1723525;83;21201;-78
2022/09/21 14:33:38;;;;;;;2.98;1.52;;;;;;;19.93;39.53;99798.06;1723404;83;21202;-78
2022/09/21 14:36:49;;;;;;;2.50;1.87;;;;;;;19.84;39.44;99799.56;1722784;83;21596;-78
2022/09/21 14:39:55;;;;;;;5.12;1.70;;;;;;;19.79;38.91;99802.25;1723358;83;21209;-78
2022/09/21 14:43:02;;;;;;;3.90;1.50;;;;;;;19.68;38.97;99798.45;1722001;83;21190;-78
2022/09/21 14:46:39;;;;;;;2.47;1.60;;;;;;;19.64;39.51;99801.42;1722188;83;21284;-78
2022/09/21 14:50:11;;;;;;;2.80;1.45;;;;;;;19.53;39.79;99801.73;1723350;83;21202;-78
2022/09/21 14:53:26;;;;;;;4.78;1.50;;;;;;;19.40;40.08;99795.93;1722330;83;21780;-78
2022/09/21 14:57:07;;;;;;;2.37;1.62;;;;;;;19.28;40.45;99803.98;1722517;83;21213;-78
2022/09/21 15:00:31;;;;;;;5.00;1.40;;;;;;;19.20;40.66;99798.30;1722324;83;21222;-79
2022/09/21 15:03:58;;;;;;;2.92;1.55;;;;;;;19.11;40.80;99800.60;1722385;83;21214;-78
2022/09/21 15:11:34;;;;;;;2.20;1.40;;;;;;;18.99;41.17;99798.93;1664154;86;21255;-78
2022/09/21 15:14:48;;;;;;;3.08;1.75;;;;;;;18.86;40.89;99805.02;1687451;85;21821;-78
2022/09/21 15:18:02;;;;;;;2.75;1.77;;;;;;;18.85;40.68;99808.05;1693851;84;21272;-78
2022/09/21 15:21:10;;;;;;;6.33;1.77;;;;;;;18.77;40.70;99807.89;1694782;84;21328;-79
2022/09/21 15:24:38;;;;;;;4.65;1.75;;;;;;;18.57;40.84;99802.66;1694750;84;21307;-78